sensor_id;sensor_type;location;lat;lon;timestamp;temperature;humidity
84916;DHT22;75178;53.054;5.846;2024-01-10T00:02:11;-3.80;99.90
84916;DHT22;75178;53.054;5.846;2024-01-10T00:04:56;-3.80;99.90
84916;DHT22;75178;53.054;5.846;2024-01-10T00:07:41;-3.80;99.90
84916;DHT22;75178;53.054;5.846;2024-01-10T00:10:25;-3.80;99.90
84916;DHT22;75178;53.054;5.846;2024-01-10T00:13:09;-3.80;99.90
84916;DHT22;75178;53.054;5.846;2024-01-10T00:15:54;-3.80;99.90
84916;DHT22;75178;53.054;5.846;2024-01-10T00:18:38;-3.80;99.90
84916;DHT22;75178;53.054;5.846;2024-01-10T00:21:22;-3.80;99.90
84916;DHT22;75178;53.054;5.846;2024-01-10T00:24:07;-3.80;99.90
84916;DHT22;75178;53.054;5.846;2024-01-10T00:26:51;-3.90;99.90
84916;DHT22;75178;53.054;5.846;2024-01-10T00:29:36;-3.90;99.90
84916;DHT22;75178;53.054;5.846;2024-01-10T00:32:20;-3.90;99.90
84916;DHT22;75178;53.054;5.846;2024-01-10T00:35:04;-3.90;99.90
84916;DHT22;75178;53.054;5.846;2024-01-10T00:37:48;-3.90;99.90
84916;DHT22;75178;53.054;5.846;2024-01-10T00:40:34;-3.90;99.90
84916;DHT22;75178;53.054;5.846;2024-01-10T00:43:18;-3.90;99.90
84916;DHT22;75178;53.054;5.846;2024-01-10T00:46:02;-3.90;99.90
84916;DHT22;75178;53.054;5.846;2024-01-10T00:48:46;-3.90;99.90
84916;DHT22;75178;53.054;5.846;2024-01-10T00:51:30;-4.00;99.90
84916;DHT22;75178;53.054;5.846;2024-01-10T00:54:14;-3.90;99.90
84916;DHT22;75178;53.054;5.846;2024-01-10T00:57:00;-4.00;99.90
84916;DHT22;75178;53.054;5.846;2024-01-10T00:59:44;-4.00;99.90
84916;DHT22;75178;53.054;5.846;2024-01-10T01:02:28;-4.00;99.90
84916;DHT22;75178;53.054;5.846;2024-01-10T01:05:12;-4.00;99.90
84916;DHT22;75178;53.054;5.846;2024-01-10T01:07:56;-4.00;99.90
84916;DHT22;75178;53.054;5.846;2024-01-10T01:10:40;-4.00;99.90
84916;DHT22;75178;53.054;5.846;2024-01-10T01:13:26;-4.10;99.90
84916;DHT22;75178;53.054;5.846;2024-01-10T01:16:10;-4.10;99.90
84916;DHT22;75178;53.054;5.846;2024-01-10T01:18:55;-4.10;99.90
84916;DHT22;75178;53.054;5.846;2024-01-10T01:21:39;-4.10;99.90
84916;DHT22;75178;53.054;5.846;2024-01-10T01:24:23;-4.10;99.90
84916;DHT22;75178;53.054;5.846;2024-01-10T01:27:07;-4.10;99.90
84916;DHT22;75178;53.054;5.846;2024-01-10T01:29:52;-4.10;99.90
84916;DHT22;75178;53.054;5.846;2024-01-10T01:32:36;-4.10;99.90
84916;DHT22;75178;53.054;5.846;2024-01-10T01:35:20;-4.20;99.90
84916;DHT22;75178;53.054;5.846;2024-01-10T01:38:05;-4.20;99.90
84916;DHT22;75178;53.054;5.846;2024-01-10T01:40:49;-4.20;99.90
84916;DHT22;75178;53.054;5.846;2024-01-10T01:43:33;-4.20;99.90
84916;DHT22;75178;53.054;5.846;2024-01-10T01:46:18;-4.20;99.90
84916;DHT22;75178;53.054;5.846;2024-01-10T01:49:03;-4.20;99.90
84916;DHT22;75178;53.054;5.846;2024-01-10T01:51:47;-4.20;99.90
84916;DHT22;75178;53.054;5.846;2024-01-10T01:54:32;-4.20;99.90
84916;DHT22;75178;53.054;5.846;2024-01-10T01:57:17;-4.20;99.90
84916;DHT22;75178;53.054;5.846;2024-01-10T02:00:01;-4.20;99.90
84916;DHT22;75178;53.054;5.846;2024-01-10T02:02:48;-4.20;99.90
84916;DHT22;75178;53.054;5.846;2024-01-10T02:05:32;-4.20;99.90
84916;DHT22;75178;53.054;5.846;2024-01-10T02:08:17;-4.20;99.90
84916;DHT22;75178;53.054;5.846;2024-01-10T02:11:01;-4.20;99.90
84916;DHT22;75178;53.054;5.846;2024-01-10T02:13:46;-4.30;99.90
84916;DHT22;75178;53.054;5.846;2024-01-10T02:16:31;-4.20;99.90
84916;DHT22;75178;53.054;5.846;2024-01-10T02:19:21;-4.30;99.90
84916;DHT22;75178;53.054;5.846;2024-01-10T02:22:05;-4.30;99.90
84916;DHT22;75178;53.054;5.846;2024-01-10T02:24:53;-4.20;99.90
84916;DHT22;75178;53.054;5.846;2024-01-10T02:27:39;-4.20;99.90
84916;DHT22;75178;53.054;5.846;2024-01-10T02:30:23;-4.20;99.90
84916;DHT22;75178;53.054;5.846;2024-01-10T02:33:07;-4.20;99.90
84916;DHT22;75178;53.054;5.846;2024-01-10T02:35:51;-4.20;99.90
84916;DHT22;75178;53.054;5.846;2024-01-10T02:38:35;-4.20;99.90
84916;DHT22;75178;53.054;5.846;2024-01-10T02:41:21;-4.20;99.90
84916;DHT22;75178;53.054;5.846;2024-01-10T02:44:05;-4.20;99.90
84916;DHT22;75178;53.054;5.846;2024-01-10T02:46:49;-4.20;99.90
84916;DHT22;75178;53.054;5.846;2024-01-10T02:49:33;-4.20;99.90
84916;DHT22;75178;53.054;5.846;2024-01-10T02:52:18;-4.20;99.90
84916;DHT22;75178;53.054;5.846;2024-01-10T02:55:02;-4.20;99.90
84916;DHT22;75178;53.054;5.846;2024-01-10T02:57:48;-4.20;99.90
84916;DHT22;75178;53.054;5.846;2024-01-10T03:00:32;-4.20;99.90
84916;DHT22;75178;53.054;5.846;2024-01-10T03:03:16;-4.20;99.90
84916;DHT22;75178;53.054;5.846;2024-01-10T03:06:00;-4.20;99.90
84916;DHT22;75178;53.054;5.846;2024-01-10T03:08:45;-4.20;99.90
84916;DHT22;75178;53.054;5.846;2024-01-10T03:11:29;-4.20;99.90
84916;DHT22;75178;53.054;5.846;2024-01-10T03:14:14;-4.10;99.90
84916;DHT22;75178;53.054;5.846;2024-01-10T03:16:59;-4.10;99.90
84916;DHT22;75178;53.054;5.846;2024-01-10T03:19:43;-4.20;99.90
84916;DHT22;75178;53.054;5.846;2024-01-10T03:22:28;-4.10;99.90
84916;DHT22;75178;53.054;5.846;2024-01-10T03:25:13;-4.10;99.90
84916;DHT22;75178;53.054;5.846;2024-01-10T03:27:58;-4.10;99.90
84916;DHT22;75178;53.054;5.846;2024-01-10T03:30:43;-4.10;99.90
84916;DHT22;75178;53.054;5.846;2024-01-10T03:33:27;-4.10;99.90
84916;DHT22;75178;53.054;5.846;2024-01-10T03:36:13;-4.10;99.90
84916;DHT22;75178;53.054;5.846;2024-01-10T03:38:57;-4.10;99.90
84916;DHT22;75178;53.054;5.846;2024-01-10T03:41:41;-4.10;99.90
84916;DHT22;75178;53.054;5.846;2024-01-10T03:44:26;-4.10;99.90
84916;DHT22;75178;53.054;5.846;2024-01-10T03:47:12;-4.10;99.90
84916;DHT22;75178;53.054;5.846;2024-01-10T03:49:56;-4.10;99.90
84916;DHT22;75178;53.054;5.846;2024-01-10T03:52:40;-4.10;99.90
84916;DHT22;75178;53.054;5.846;2024-01-10T03:55:24;-4.10;99.90
84916;DHT22;75178;53.054;5.846;2024-01-10T03:58:08;-4.10;99.90
84916;DHT22;75178;53.054;5.846;2024-01-10T04:00:52;-4.10;99.90
84916;DHT22;75178;53.054;5.846;2024-01-10T04:03:38;-4.10;99.90
84916;DHT22;75178;53.054;5.846;2024-01-10T04:06:22;-4.20;99.90
84916;DHT22;75178;53.054;5.846;2024-01-10T04:09:06;-4.20;99.90
84916;DHT22;75178;53.054;5.846;2024-01-10T04:11:51;-4.20;99.90
84916;DHT22;75178;53.054;5.846;2024-01-10T04:14:35;-4.20;99.90
84916;DHT22;75178;53.054;5.846;2024-01-10T04:17:19;-4.20;99.90
84916;DHT22;75178;53.054;5.846;2024-01-10T04:20:05;-4.20;99.90
84916;DHT22;75178;53.054;5.846;2024-01-10T04:22:50;-4.20;99.90
84916;DHT22;75178;53.054;5.846;2024-01-10T04:25:34;-4.20;99.90
84916;DHT22;75178;53.054;5.846;2024-01-10T04:28:18;-4.20;99.90
84916;DHT22;75178;53.054;5.846;2024-01-10T04:31:03;-4.20;99.90
84916;DHT22;75178;53.054;5.846;2024-01-10T04:33:47;-4.20;99.90
84916;DHT22;75178;53.054;5.846;2024-01-10T04:36:33;-4.20;99.90
84916;DHT22;75178;53.054;5.846;2024-01-10T04:39:17;-4.20;99.90
84916;DHT22;75178;53.054;5.846;2024-01-10T04:42:01;-4.20;99.90
84916;DHT22;75178;53.054;5.846;2024-01-10T04:44:46;-4.30;99.90
84916;DHT22;75178;53.054;5.846;2024-01-10T04:47:30;-4.30;99.90
84916;DHT22;75178;53.054;5.846;2024-01-10T04:50:14;-4.30;99.90
84916;DHT22;75178;53.054;5.846;2024-01-10T04:52:59;-4.30;99.90
84916;DHT22;75178;53.054;5.846;2024-01-10T04:55:43;-4.30;99.90
84916;DHT22;75178;53.054;5.846;2024-01-10T04:58:27;-4.30;99.90
84916;DHT22;75178;53.054;5.846;2024-01-10T05:01:11;-4.30;99.90
84916;DHT22;75178;53.054;5.846;2024-01-10T05:03:56;-4.30;99.90
84916;DHT22;75178;53.054;5.846;2024-01-10T05:06:40;-4.30;99.90
84916;DHT22;75178;53.054;5.846;2024-01-10T05:09:25;-4.40;99.90
84916;DHT22;75178;53.054;5.846;2024-01-10T05:12:10;-4.30;99.90
84916;DHT22;75178;53.054;5.846;2024-01-10T05:14:55;-4.30;99.90
84916;DHT22;75178;53.054;5.846;2024-01-10T05:17:39;-4.40;99.90
84916;DHT22;75178;53.054;5.846;2024-01-10T05:20:23;-4.40;99.90
84916;DHT22;75178;53.054;5.846;2024-01-10T05:23:07;-4.30;99.90
84916;DHT22;75178;53.054;5.846;2024-01-10T05:25:53;-4.30;99.90
84916;DHT22;75178;53.054;5.846;2024-01-10T05:28:38;-4.30;99.90
84916;DHT22;75178;53.054;5.846;2024-01-10T05:31:22;-4.30;99.90
84916;DHT22;75178;53.054;5.846;2024-01-10T05:34:06;-4.40;99.90
84916;DHT22;75178;53.054;5.846;2024-01-10T05:36:50;-4.40;99.90
84916;DHT22;75178;53.054;5.846;2024-01-10T05:39:34;-4.40;99.90
84916;DHT22;75178;53.054;5.846;2024-01-10T05:42:20;-4.40;99.90
84916;DHT22;75178;53.054;5.846;2024-01-10T05:45:05;-4.40;99.90
84916;DHT22;75178;53.054;5.846;2024-01-10T05:47:49;-4.40;99.90
84916;DHT22;75178;53.054;5.846;2024-01-10T05:50:34;-4.40;99.90
84916;DHT22;75178;53.054;5.846;2024-01-10T05:53:18;-4.40;99.90
84916;DHT22;75178;53.054;5.846;2024-01-10T05:56:02;-4.40;99.90
84916;DHT22;75178;53.054;5.846;2024-01-10T05:58:47;-4.40;99.90
84916;DHT22;75178;53.054;5.846;2024-01-10T06:01:31;-4.40;99.90
84916;DHT22;75178;53.054;5.846;2024-01-10T06:04:16;-4.40;99.90
84916;DHT22;75178;53.054;5.846;2024-01-10T06:07:00;-4.40;99.90
84916;DHT22;75178;53.054;5.846;2024-01-10T06:09:44;-4.40;99.90
84916;DHT22;75178;53.054;5.846;2024-01-10T06:12:28;-4.40;99.90
84916;DHT22;75178;53.054;5.846;2024-01-10T06:15:14;-4.40;99.90
84916;DHT22;75178;53.054;5.846;2024-01-10T06:17:58;-4.40;99.90
84916;DHT22;75178;53.054;5.846;2024-01-10T06:20:42;-4.40;99.90
84916;DHT22;75178;53.054;5.846;2024-01-10T06:23:27;-4.40;99.90
84916;DHT22;75178;53.054;5.846;2024-01-10T06:26:11;-4.40;99.90
84916;DHT22;75178;53.054;5.846;2024-01-10T06:28:55;-4.40;99.90
84916;DHT22;75178;53.054;5.846;2024-01-10T06:31:40;-4.40;99.90
84916;DHT22;75178;53.054;5.846;2024-01-10T06:34:25;-4.50;99.90
84916;DHT22;75178;53.054;5.846;2024-01-10T06:37:10;-4.50;99.90
84916;DHT22;75178;53.054;5.846;2024-01-10T06:39:54;-4.50;99.90
84916;DHT22;75178;53.054;5.846;2024-01-10T06:42:38;-4.50;99.90
84916;DHT22;75178;53.054;5.846;2024-01-10T06:45:22;-4.50;99.90
84916;DHT22;75178;53.054;5.846;2024-01-10T06:48:08;-4.50;99.90
84916;DHT22;75178;53.054;5.846;2024-01-10T06:50:55;-4.50;99.90
84916;DHT22;75178;53.054;5.846;2024-01-10T06:53:39;-4.50;99.90
84916;DHT22;75178;53.054;5.846;2024-01-10T06:56:24;-4.50;99.90
84916;DHT22;75178;53.054;5.846;2024-01-10T06:59:08;-4.50;99.90
84916;DHT22;75178;53.054;5.846;2024-01-10T07:01:52;-4.50;99.90
84916;DHT22;75178;53.054;5.846;2024-01-10T07:04:38;-4.50;99.90
84916;DHT22;75178;53.054;5.846;2024-01-10T07:07:22;-4.50;99.90
84916;DHT22;75178;53.054;5.846;2024-01-10T07:10:07;-4.50;99.90
84916;DHT22;75178;53.054;5.846;2024-01-10T07:12:51;-4.50;99.90
84916;DHT22;75178;53.054;5.846;2024-01-10T07:15:35;-4.50;99.90
84916;DHT22;75178;53.054;5.846;2024-01-10T07:18:19;-4.50;99.90
84916;DHT22;75178;53.054;5.846;2024-01-10T07:21:05;-4.50;99.90
84916;DHT22;75178;53.054;5.846;2024-01-10T07:23:49;-4.50;99.90
84916;DHT22;75178;53.054;5.846;2024-01-10T07:26:33;-4.50;99.90
84916;DHT22;75178;53.054;5.846;2024-01-10T07:29:18;-4.50;99.90
84916;DHT22;75178;53.054;5.846;2024-01-10T07:32:02;-4.50;99.90
84916;DHT22;75178;53.054;5.846;2024-01-10T07:34:46;-4.50;99.90
84916;DHT22;75178;53.054;5.846;2024-01-10T07:37:32;-4.50;99.90
84916;DHT22;75178;53.054;5.846;2024-01-10T07:40:16;-4.50;99.90
84916;DHT22;75178;53.054;5.846;2024-01-10T07:43:00;-4.50;99.90
84916;DHT22;75178;53.054;5.846;2024-01-10T07:45:44;-4.50;99.90
84916;DHT22;75178;53.054;5.846;2024-01-10T07:48:28;-4.50;99.90
84916;DHT22;75178;53.054;5.846;2024-01-10T07:51:13;-4.50;99.90
84916;DHT22;75178;53.054;5.846;2024-01-10T07:53:58;-4.50;99.90
84916;DHT22;75178;53.054;5.846;2024-01-10T07:56:43;-4.50;99.90
84916;DHT22;75178;53.054;5.846;2024-01-10T07:59:27;-4.50;99.90
84916;DHT22;75178;53.054;5.846;2024-01-10T08:02:11;-4.50;99.90
84916;DHT22;75178;53.054;5.846;2024-01-10T08:04:55;-4.50;99.90
84916;DHT22;75178;53.054;5.846;2024-01-10T08:07:39;-4.50;99.90
84916;DHT22;75178;53.054;5.846;2024-01-10T08:10:24;-4.50;99.90
84916;DHT22;75178;53.054;5.846;2024-01-10T08:13:08;-4.50;99.90
84916;DHT22;75178;53.054;5.846;2024-01-10T08:15:52;-4.50;99.90
84916;DHT22;75178;53.054;5.846;2024-01-10T08:18:37;-4.50;99.90
84916;DHT22;75178;53.054;5.846;2024-01-10T08:21:21;-4.50;99.90
84916;DHT22;75178;53.054;5.846;2024-01-10T08:24:06;-4.50;99.90
84916;DHT22;75178;53.054;5.846;2024-01-10T08:26:51;-4.50;99.90
84916;DHT22;75178;53.054;5.846;2024-01-10T08:29:35;-4.50;99.90
84916;DHT22;75178;53.054;5.846;2024-01-10T08:32:20;-4.40;99.90
84916;DHT22;75178;53.054;5.846;2024-01-10T08:35:04;-4.40;99.90
84916;DHT22;75178;53.054;5.846;2024-01-10T08:37:49;-4.40;99.90
84916;DHT22;75178;53.054;5.846;2024-01-10T08:40:33;-4.30;99.90
84916;DHT22;75178;53.054;5.846;2024-01-10T08:43:18;-4.30;99.90
84916;DHT22;75178;53.054;5.846;2024-01-10T08:46:03;-4.30;99.90
84916;DHT22;75178;53.054;5.846;2024-01-10T08:48:47;-4.20;99.90
84916;DHT22;75178;53.054;5.846;2024-01-10T08:51:31;-4.20;99.90
84916;DHT22;75178;53.054;5.846;2024-01-10T08:54:15;-4.20;99.90
84916;DHT22;75178;53.054;5.846;2024-01-10T08:57:00;-4.20;99.90
84916;DHT22;75178;53.054;5.846;2024-01-10T08:59:45;-4.10;99.90
84916;DHT22;75178;53.054;5.846;2024-01-10T09:02:29;-4.10;99.90
84916;DHT22;75178;53.054;5.846;2024-01-10T09:05:14;-4.00;99.90
84916;DHT22;75178;53.054;5.846;2024-01-10T09:07:58;-4.00;99.90
84916;DHT22;75178;53.054;5.846;2024-01-10T09:10:42;-3.90;99.90
84916;DHT22;75178;53.054;5.846;2024-01-10T09:13:26;-3.80;99.90
84916;DHT22;75178;53.054;5.846;2024-01-10T09:16:12;-3.80;99.90
84916;DHT22;75178;53.054;5.846;2024-01-10T09:18:57;-3.80;99.90
84916;DHT22;75178;53.054;5.846;2024-01-10T09:21:41;-3.70;99.90
84916;DHT22;75178;53.054;5.846;2024-01-10T09:24:25;-3.70;99.90
84916;DHT22;75178;53.054;5.846;2024-01-10T09:27:09;-3.60;99.90
84916;DHT22;75178;53.054;5.846;2024-01-10T09:29:53;-3.60;99.90
84916;DHT22;75178;53.054;5.846;2024-01-10T09:32:39;-3.60;99.90
84916;DHT22;75178;53.054;5.846;2024-01-10T09:35:23;-3.50;99.90
84916;DHT22;75178;53.054;5.846;2024-01-10T09:38:07;-3.40;99.90
84916;DHT22;75178;53.054;5.846;2024-01-10T09:40:52;-3.40;99.90
84916;DHT22;75178;53.054;5.846;2024-01-10T09:43:40;-3.30;99.90
84916;DHT22;75178;53.054;5.846;2024-01-10T09:46:24;-3.30;99.90
84916;DHT22;75178;53.054;5.846;2024-01-10T09:49:11;-3.20;99.90
84916;DHT22;75178;53.054;5.846;2024-01-10T09:51:58;-3.20;99.90
84916;DHT22;75178;53.054;5.846;2024-01-10T09:54:43;-3.10;99.90
84916;DHT22;75178;53.054;5.846;2024-01-10T09:57:27;-3.10;99.90
84916;DHT22;75178;53.054;5.846;2024-01-10T10:00:14;-3.00;99.90
84916;DHT22;75178;53.054;5.846;2024-01-10T10:02:59;-2.90;99.90
84916;DHT22;75178;53.054;5.846;2024-01-10T10:05:46;-2.90;99.90
84916;DHT22;75178;53.054;5.846;2024-01-10T10:08:30;-2.80;99.90
84916;DHT22;75178;53.054;5.846;2024-01-10T10:11:15;-2.80;99.90
84916;DHT22;75178;53.054;5.846;2024-01-10T10:14:13;-2.70;99.90
84916;DHT22;75178;53.054;5.846;2024-01-10T10:17:13;-2.70;99.90
84916;DHT22;75178;53.054;5.846;2024-01-10T10:20:03;-2.60;99.90
84916;DHT22;75178;53.054;5.846;2024-01-10T10:22:59;-2.60;99.90
84916;DHT22;75178;53.054;5.846;2024-01-10T10:25:45;-2.50;99.90
84916;DHT22;75178;53.054;5.846;2024-01-10T10:28:29;-2.50;99.90
84916;DHT22;75178;53.054;5.846;2024-01-10T10:31:13;-2.50;99.90
84916;DHT22;75178;53.054;5.846;2024-01-10T10:34:02;-2.40;99.90
84916;DHT22;75178;53.054;5.846;2024-01-10T10:36:46;-2.40;99.90
84916;DHT22;75178;53.054;5.846;2024-01-10T10:39:31;-2.30;99.90
84916;DHT22;75178;53.054;5.846;2024-01-10T10:42:16;-2.30;99.90
84916;DHT22;75178;53.054;5.846;2024-01-10T10:45:03;-2.20;99.90
84916;DHT22;75178;53.054;5.846;2024-01-10T10:47:50;-2.10;99.90
84916;DHT22;75178;53.054;5.846;2024-01-10T10:50:35;-2.10;99.90
84916;DHT22;75178;53.054;5.846;2024-01-10T10:53:21;-2.00;99.90
84916;DHT22;75178;53.054;5.846;2024-01-10T10:56:08;-2.00;99.90
84916;DHT22;75178;53.054;5.846;2024-01-10T10:58:53;-1.90;99.90
84916;DHT22;75178;53.054;5.846;2024-01-10T11:01:39;-1.90;99.90
84916;DHT22;75178;53.054;5.846;2024-01-10T11:04:25;-1.80;99.90
84916;DHT22;75178;53.054;5.846;2024-01-10T11:07:09;-1.80;99.90
84916;DHT22;75178;53.054;5.846;2024-01-10T11:09:54;-1.70;99.90
84916;DHT22;75178;53.054;5.846;2024-01-10T11:12:59;-1.70;99.90
84916;DHT22;75178;53.054;5.846;2024-01-10T11:16:11;-1.60;99.90
84916;DHT22;75178;53.054;5.846;2024-01-10T11:19:12;-1.60;99.90
84916;DHT22;75178;53.054;5.846;2024-01-10T11:22:07;-1.50;99.90
84916;DHT22;75178;53.054;5.846;2024-01-10T11:24:54;-1.50;99.90
84916;DHT22;75178;53.054;5.846;2024-01-10T11:27:39;-1.50;99.90
84916;DHT22;75178;53.054;5.846;2024-01-10T11:30:37;-1.40;99.90
84916;DHT22;75178;53.054;5.846;2024-01-10T11:33:23;-1.40;99.90
84916;DHT22;75178;53.054;5.846;2024-01-10T11:36:12;-1.30;99.90
84916;DHT22;75178;53.054;5.846;2024-01-10T11:38:58;-1.20;99.90
84916;DHT22;75178;53.054;5.846;2024-01-10T11:41:47;-1.20;99.90
84916;DHT22;75178;53.054;5.846;2024-01-10T11:44:31;-1.20;99.90
84916;DHT22;75178;53.054;5.846;2024-01-10T11:47:17;-1.10;99.90
84916;DHT22;75178;53.054;5.846;2024-01-10T11:50:02;-1.10;99.90
84916;DHT22;75178;53.054;5.846;2024-01-10T11:52:47;-1.00;99.90
84916;DHT22;75178;53.054;5.846;2024-01-10T11:55:52;-1.00;99.90
84916;DHT22;75178;53.054;5.846;2024-01-10T11:58:54;-0.90;99.90
84916;DHT22;75178;53.054;5.846;2024-01-10T12:01:40;-0.90;99.90
84916;DHT22;75178;53.054;5.846;2024-01-10T12:04:26;-0.90;99.90
84916;DHT22;75178;53.054;5.846;2024-01-10T12:07:11;-0.80;99.90
84916;DHT22;75178;53.054;5.846;2024-01-10T12:09:56;-0.80;99.90
84916;DHT22;75178;53.054;5.846;2024-01-10T12:12:40;-0.70;99.90
84916;DHT22;75178;53.054;5.846;2024-01-10T12:15:24;-0.70;99.90
84916;DHT22;75178;53.054;5.846;2024-01-10T12:18:09;-0.70;99.90
84916;DHT22;75178;53.054;5.846;2024-01-10T12:20:54;-0.60;99.90
84916;DHT22;75178;53.054;5.846;2024-01-10T12:23:38;-0.60;99.90
84916;DHT22;75178;53.054;5.846;2024-01-10T12:26:23;-0.50;99.90
84916;DHT22;75178;53.054;5.846;2024-01-10T12:29:07;-0.50;99.90
84916;DHT22;75178;53.054;5.846;2024-01-10T12:31:51;-0.60;99.90
84916;DHT22;75178;53.054;5.846;2024-01-10T12:34:38;-0.60;99.90
84916;DHT22;75178;53.054;5.846;2024-01-10T12:37:24;-0.50;99.90
84916;DHT22;75178;53.054;5.846;2024-01-10T12:40:09;-0.50;99.90
84916;DHT22;75178;53.054;5.846;2024-01-10T12:43:02;-0.50;99.90
84916;DHT22;75178;53.054;5.846;2024-01-10T12:45:46;-0.40;99.90
84916;DHT22;75178;53.054;5.846;2024-01-10T12:48:31;-0.40;99.90
84916;DHT22;75178;53.054;5.846;2024-01-10T12:51:15;-0.40;99.90
84916;DHT22;75178;53.054;5.846;2024-01-10T12:54:00;-0.30;99.90
84916;DHT22;75178;53.054;5.846;2024-01-10T12:56:45;-0.30;99.90
84916;DHT22;75178;53.054;5.846;2024-01-10T12:59:29;-0.20;99.90
84916;DHT22;75178;53.054;5.846;2024-01-10T13:02:13;-0.20;99.90
84916;DHT22;75178;53.054;5.846;2024-01-10T13:04:57;-0.30;99.90
84916;DHT22;75178;53.054;5.846;2024-01-10T13:07:41;-0.30;99.90
84916;DHT22;75178;53.054;5.846;2024-01-10T13:10:27;-0.20;99.90
84916;DHT22;75178;53.054;5.846;2024-01-10T13:13:11;-0.20;99.90
84916;DHT22;75178;53.054;5.846;2024-01-10T13:15:55;-0.20;99.90
84916;DHT22;75178;53.054;5.846;2024-01-10T13:18:39;-0.10;99.90
84916;DHT22;75178;53.054;5.846;2024-01-10T13:21:24;-0.10;99.90
84916;DHT22;75178;53.054;5.846;2024-01-10T13:24:08;-0.10;99.90
84916;DHT22;75178;53.054;5.846;2024-01-10T13:26:53;0.00;99.90
84916;DHT22;75178;53.054;5.846;2024-01-10T13:29:40;0.00;99.90
84916;DHT22;75178;53.054;5.846;2024-01-10T13:32:24;0.00;99.90
84916;DHT22;75178;53.054;5.846;2024-01-10T13:35:08;0.00;99.90
84916;DHT22;75178;53.054;5.846;2024-01-10T13:37:53;0.00;99.90
84916;DHT22;75178;53.054;5.846;2024-01-10T13:40:37;0.10;99.90
84916;DHT22;75178;53.054;5.846;2024-01-10T13:43:22;0.10;99.90
84916;DHT22;75178;53.054;5.846;2024-01-10T13:46:06;0.10;99.90
84916;DHT22;75178;53.054;5.846;2024-01-10T13:48:50;0.10;99.90
84916;DHT22;75178;53.054;5.846;2024-01-10T13:51:35;0.10;99.90
84916;DHT22;75178;53.054;5.846;2024-01-10T13:54:20;0.10;99.90
84916;DHT22;75178;53.054;5.846;2024-01-10T13:57:05;0.10;99.90
84916;DHT22;75178;53.054;5.846;2024-01-10T13:59:50;0.10;99.90
84916;DHT22;75178;53.054;5.846;2024-01-10T14:02:35;0.10;99.90
84916;DHT22;75178;53.054;5.846;2024-01-10T14:05:19;0.10;99.90
84916;DHT22;75178;53.054;5.846;2024-01-10T14:08:04;0.10;99.90
84916;DHT22;75178;53.054;5.846;2024-01-10T14:10:48;0.10;99.90
84916;DHT22;75178;53.054;5.846;2024-01-10T14:13:32;0.10;99.90
84916;DHT22;75178;53.054;5.846;2024-01-10T14:16:18;0.10;99.90
84916;DHT22;75178;53.054;5.846;2024-01-10T14:19:02;0.10;99.90
84916;DHT22;75178;53.054;5.846;2024-01-10T14:21:46;0.10;99.90
84916;DHT22;75178;53.054;5.846;2024-01-10T14:24:30;0.10;99.90
84916;DHT22;75178;53.054;5.846;2024-01-10T14:27:14;0.10;99.90
84916;DHT22;75178;53.054;5.846;2024-01-10T14:29:58;0.00;99.90
84916;DHT22;75178;53.054;5.846;2024-01-10T14:32:44;0.00;99.90
84916;DHT22;75178;53.054;5.846;2024-01-10T14:35:29;0.00;99.90
84916;DHT22;75178;53.054;5.846;2024-01-10T14:38:13;-0.10;99.90
84916;DHT22;75178;53.054;5.846;2024-01-10T14:40:57;-0.20;99.90
84916;DHT22;75178;53.054;5.846;2024-01-10T14:43:42;-0.30;99.90
84916;DHT22;75178;53.054;5.846;2024-01-10T14:46:26;-0.30;99.90
84916;DHT22;75178;53.054;5.846;2024-01-10T14:49:11;-0.40;99.90
84916;DHT22;75178;53.054;5.846;2024-01-10T14:51:56;-0.40;99.90
84916;DHT22;75178;53.054;5.846;2024-01-10T14:54:40;-0.50;99.90
84916;DHT22;75178;53.054;5.846;2024-01-10T14:57:24;-0.60;99.90
84916;DHT22;75178;53.054;5.846;2024-01-10T15:00:09;-0.60;99.90
84916;DHT22;75178;53.054;5.846;2024-01-10T15:02:53;-0.70;99.90
84916;DHT22;75178;53.054;5.846;2024-01-10T15:05:41;-0.70;99.90
84916;DHT22;75178;53.054;5.846;2024-01-10T15:08:25;-0.70;99.90
84916;DHT22;75178;53.054;5.846;2024-01-10T15:11:09;-0.80;99.90
84916;DHT22;75178;53.054;5.846;2024-01-10T15:13:54;-0.90;99.90
84916;DHT22;75178;53.054;5.846;2024-01-10T15:16:38;-0.90;99.90
84916;DHT22;75178;53.054;5.846;2024-01-10T15:19:22;-0.90;99.90
84916;DHT22;75178;53.054;5.846;2024-01-10T15:22:08;-1.00;99.90
84916;DHT22;75178;53.054;5.846;2024-01-10T15:24:52;-1.00;99.90
84916;DHT22;75178;53.054;5.846;2024-01-10T15:27:36;-1.10;99.90
84916;DHT22;75178;53.054;5.846;2024-01-10T15:30:20;-1.10;99.90
84916;DHT22;75178;53.054;5.846;2024-01-10T15:33:04;-1.10;99.90
84916;DHT22;75178;53.054;5.846;2024-01-10T15:35:49;-1.20;99.90
84916;DHT22;75178;53.054;5.846;2024-01-10T15:38:35;-1.20;99.90
84916;DHT22;75178;53.054;5.846;2024-01-10T15:41:19;-1.20;99.90
84916;DHT22;75178;53.054;5.846;2024-01-10T15:44:04;-1.20;99.90
84916;DHT22;75178;53.054;5.846;2024-01-10T15:46:48;-1.30;99.90
84916;DHT22;75178;53.054;5.846;2024-01-10T15:49:32;-1.40;99.90
84916;DHT22;75178;53.054;5.846;2024-01-10T15:52:16;-1.40;99.90
84916;DHT22;75178;53.054;5.846;2024-01-10T15:55:02;-1.40;99.90
84916;DHT22;75178;53.054;5.846;2024-01-10T15:57:46;-1.50;99.90
84916;DHT22;75178;53.054;5.846;2024-01-10T16:00:30;-1.50;99.90
84916;DHT22;75178;53.054;5.846;2024-01-10T16:03:14;-1.60;99.90
84916;DHT22;75178;53.054;5.846;2024-01-10T16:05:59;-1.70;99.90
84916;DHT22;75178;53.054;5.846;2024-01-10T16:08:45;-1.70;99.90
84916;DHT22;75178;53.054;5.846;2024-01-10T16:11:30;-1.70;99.90
84916;DHT22;75178;53.054;5.846;2024-01-10T16:14:15;-1.80;99.90
84916;DHT22;75178;53.054;5.846;2024-01-10T16:16:59;-1.80;99.90
84916;DHT22;75178;53.054;5.846;2024-01-10T16:19:43;-1.80;99.90
84916;DHT22;75178;53.054;5.846;2024-01-10T16:22:28;-1.90;99.90
84916;DHT22;75178;53.054;5.846;2024-01-10T16:25:12;-1.90;99.90
84916;DHT22;75178;53.054;5.846;2024-01-10T16:27:58;-1.90;99.90
84916;DHT22;75178;53.054;5.846;2024-01-10T16:30:42;-2.00;99.90
84916;DHT22;75178;53.054;5.846;2024-01-10T16:33:27;-2.00;99.90
84916;DHT22;75178;53.054;5.846;2024-01-10T16:36:11;-2.00;99.90
84916;DHT22;75178;53.054;5.846;2024-01-10T16:38:55;-2.00;99.90
84916;DHT22;75178;53.054;5.846;2024-01-10T16:41:39;-2.00;99.90
84916;DHT22;75178;53.054;5.846;2024-01-10T16:44:25;-2.00;99.90
84916;DHT22;75178;53.054;5.846;2024-01-10T16:47:09;-2.10;99.90
84916;DHT22;75178;53.054;5.846;2024-01-10T16:49:53;-2.10;99.90
84916;DHT22;75178;53.054;5.846;2024-01-10T16:52:37;-2.10;99.90
84916;DHT22;75178;53.054;5.846;2024-01-10T16:55:21;-2.10;99.90
84916;DHT22;75178;53.054;5.846;2024-01-10T16:58:05;-2.20;99.90
84916;DHT22;75178;53.054;5.846;2024-01-10T17:00:51;-2.20;99.90
84916;DHT22;75178;53.054;5.846;2024-01-10T17:03:35;-2.20;99.90
84916;DHT22;75178;53.054;5.846;2024-01-10T17:06:19;-2.30;99.90
84916;DHT22;75178;53.054;5.846;2024-01-10T17:09:03;-2.30;99.90
84916;DHT22;75178;53.054;5.846;2024-01-10T17:11:47;-2.30;99.90
84916;DHT22;75178;53.054;5.846;2024-01-10T17:14:32;-2.40;99.90
84916;DHT22;75178;53.054;5.846;2024-01-10T17:17:17;-2.40;99.90
84916;DHT22;75178;53.054;5.846;2024-01-10T17:20:01;-2.40;99.90
84916;DHT22;75178;53.054;5.846;2024-01-10T17:22:45;-2.40;99.90
84916;DHT22;75178;53.054;5.846;2024-01-10T17:25:29;-2.50;99.90